sensor_id;sensor_type;location;lat;lon;timestamp;temperature;humidity
49413;DHT22;35493;50.276;9.372;2022-10-22T00:00:38;13.90;92.60
49413;DHT22;35493;50.276;9.372;2022-10-22T00:03:08;13.90;92.60
49413;DHT22;35493;50.276;9.372;2022-10-22T00:05:37;13.90;92.60
49413;DHT22;35493;50.276;9.372;2022-10-22T00:08:07;13.90;92.60
49413;DHT22;35493;50.276;9.372;2022-10-22T00:10:37;13.90;92.60
49413;DHT22;35493;50.276;9.372;2022-10-22T00:13:04;13.90;92.60
49413;DHT22;35493;50.276;9.372;2022-10-22T00:15:31;13.90;92.70
49413;DHT22;35493;50.276;9.372;2022-10-22T00:18:23;13.90;92.60
49413;DHT22;35493;50.276;9.372;2022-10-22T00:21:10;13.90;92.50
49413;DHT22;35493;50.276;9.372;2022-10-22T00:24:20;13.90;92.70
49413;DHT22;35493;50.276;9.372;2022-10-22T00:27:11;13.90;92.70
49413;DHT22;35493;50.276;9.372;2022-10-22T00:29:38;13.90;92.70
49413;DHT22;35493;50.276;9.372;2022-10-22T00:32:05;13.90;92.60
49413;DHT22;35493;50.276;9.372;2022-10-22T00:34:34;14.00;92.60
49413;DHT22;35493;50.276;9.372;2022-10-22T00:37:01;13.90;92.70
49413;DHT22;35493;50.276;9.372;2022-10-22T00:39:31;13.90;92.80
49413;DHT22;35493;50.276;9.372;2022-10-22T00:41:58;13.90;92.80
49413;DHT22;35493;50.276;9.372;2022-10-22T00:44:58;13.90;92.80
49413;DHT22;35493;50.276;9.372;2022-10-22T00:47:31;13.90;92.80
49413;DHT22;35493;50.276;9.372;2022-10-22T00:50:01;13.90;92.80
49413;DHT22;35493;50.276;9.372;2022-10-22T00:52:31;14.00;92.50
49413;DHT22;35493;50.276;9.372;2022-10-22T00:54:59;14.00;92.70
49413;DHT22;35493;50.276;9.372;2022-10-22T00:57:27;14.00;92.80
49413;DHT22;35493;50.276;9.372;2022-10-22T00:59:55;13.90;92.80
49413;DHT22;35493;50.276;9.372;2022-10-22T01:02:23;13.90;92.40
49413;DHT22;35493;50.276;9.372;2022-10-22T01:04:50;13.90;92.20
49413;DHT22;35493;50.276;9.372;2022-10-22T01:07:20;14.00;92.30
49413;DHT22;35493;50.276;9.372;2022-10-22T01:09:54;14.00;92.30
49413;DHT22;35493;50.276;9.372;2022-10-22T01:12:40;14.00;92.50
49413;DHT22;35493;50.276;9.372;2022-10-22T01:15:15;14.00;92.60
49413;DHT22;35493;50.276;9.372;2022-10-22T01:17:52;14.00;92.70
49413;DHT22;35493;50.276;9.372;2022-10-22T01:20:44;13.90;92.80
49413;DHT22;35493;50.276;9.372;2022-10-22T01:23:25;13.90;92.80
49413;DHT22;35493;50.276;9.372;2022-10-22T01:25:59;13.90;92.80
49413;DHT22;35493;50.276;9.372;2022-10-22T01:28:52;14.00;92.80
49413;DHT22;35493;50.276;9.372;2022-10-22T01:31:23;14.00;92.90
49413;DHT22;35493;50.276;9.372;2022-10-22T01:33:52;13.90;93.00
49413;DHT22;35493;50.276;9.372;2022-10-22T01:36:20;13.90;92.90
49413;DHT22;35493;50.276;9.372;2022-10-22T01:38:49;13.90;92.70
49413;DHT22;35493;50.276;9.372;2022-10-22T01:41:17;14.00;92.80
49413;DHT22;35493;50.276;9.372;2022-10-22T01:43:46;14.00;92.80
49413;DHT22;35493;50.276;9.372;2022-10-22T01:46:13;14.00;92.60
49413;DHT22;35493;50.276;9.372;2022-10-22T01:48:49;14.00;92.30
49413;DHT22;35493;50.276;9.372;2022-10-22T01:51:37;14.00;92.50
49413;DHT22;35493;50.276;9.372;2022-10-22T01:54:14;14.00;92.70
49413;DHT22;35493;50.276;9.372;2022-10-22T01:56:55;14.00;92.20
49413;DHT22;35493;50.276;9.372;2022-10-22T01:59:32;14.10;92.90
49413;DHT22;35493;50.276;9.372;2022-10-22T02:02:05;14.10;92.70
49413;DHT22;35493;50.276;9.372;2022-10-22T02:04:34;14.10;93.00
49413;DHT22;35493;50.276;9.372;2022-10-22T02:07:04;14.10;93.10
49413;DHT22;35493;50.276;9.372;2022-10-22T02:09:32;14.10;92.80
49413;DHT22;35493;50.276;9.372;2022-10-22T02:12:02;14.20;92.80
49413;DHT22;35493;50.276;9.372;2022-10-22T02:14:33;14.20;93.00
49413;DHT22;35493;50.276;9.372;2022-10-22T02:17:03;14.20;92.90
49413;DHT22;35493;50.276;9.372;2022-10-22T02:19:37;14.20;93.10
49413;DHT22;35493;50.276;9.372;2022-10-22T02:22:06;14.20;93.00
49413;DHT22;35493;50.276;9.372;2022-10-22T02:24:33;14.20;92.90
49413;DHT22;35493;50.276;9.372;2022-10-22T02:27:07;14.20;92.50
49413;DHT22;35493;50.276;9.372;2022-10-22T02:29:38;14.20;92.70
49413;DHT22;35493;50.276;9.372;2022-10-22T02:32:09;14.20;92.80
49413;DHT22;35493;50.276;9.372;2022-10-22T02:34:37;14.20;92.90
49413;DHT22;35493;50.276;9.372;2022-10-22T02:37:05;14.10;92.00
49413;DHT22;35493;50.276;9.372;2022-10-22T02:39:33;14.10;92.30
49413;DHT22;35493;50.276;9.372;2022-10-22T02:42:01;14.10;92.40
49413;DHT22;35493;50.276;9.372;2022-10-22T02:44:29;14.20;92.50
49413;DHT22;35493;50.276;9.372;2022-10-22T02:46:57;14.20;92.90
49413;DHT22;35493;50.276;9.372;2022-10-22T02:49:25;14.10;92.60
49413;DHT22;35493;50.276;9.372;2022-10-22T02:51:52;14.10;92.80
49413;DHT22;35493;50.276;9.372;2022-10-22T02:54:19;14.20;92.90
49413;DHT22;35493;50.276;9.372;2022-10-22T02:56:48;14.20;92.60
49413;DHT22;35493;50.276;9.372;2022-10-22T02:59:16;14.10;92.00
49413;DHT22;35493;50.276;9.372;2022-10-22T03:01:43;14.10;91.80
49413;DHT22;35493;50.276;9.372;2022-10-22T03:04:14;14.10;92.40
49413;DHT22;35493;50.276;9.372;2022-10-22T03:06:41;14.10;92.80
49413;DHT22;35493;50.276;9.372;2022-10-22T03:09:13;14.20;92.80
49413;DHT22;35493;50.276;9.372;2022-10-22T03:17:29;14.20;92.90
49413;DHT22;35493;50.276;9.372;2022-10-22T03:19:57;14.10;92.10
49413;DHT22;35493;50.276;9.372;2022-10-22T03:22:28;14.20;92.50
49413;DHT22;35493;50.276;9.372;2022-10-22T03:25:00;14.20;92.90
49413;DHT22;35493;50.276;9.372;2022-10-22T03:27:29;14.20;92.70
49413;DHT22;35493;50.276;9.372;2022-10-22T03:30:23;14.20;92.70
49413;DHT22;35493;50.276;9.372;2022-10-22T03:33:07;14.20;92.80
49413;DHT22;35493;50.276;9.372;2022-10-22T03:35:43;14.20;92.90
49413;DHT22;35493;50.276;9.372;2022-10-22T03:38:11;14.20;92.80
49413;DHT22;35493;50.276;9.372;2022-10-22T03:40:39;14.20;92.20
49413;DHT22;35493;50.276;9.372;2022-10-22T03:43:10;14.20;92.60
49413;DHT22;35493;50.276;9.372;2022-10-22T03:45:42;14.20;92.50
49413;DHT22;35493;50.276;9.372;2022-10-22T03:48:23;14.20;92.70
49413;DHT22;35493;50.276;9.372;2022-10-22T03:51:12;14.20;92.80
49413;DHT22;35493;50.276;9.372;2022-10-22T03:53:54;14.20;93.10
49413;DHT22;35493;50.276;9.372;2022-10-22T03:56:32;14.10;93.00
49413;DHT22;35493;50.276;9.372;2022-10-22T03:59:02;14.10;92.80
49413;DHT22;35493;50.276;9.372;2022-10-22T04:01:30;14.20;92.90
49413;DHT22;35493;50.276;9.372;2022-10-22T04:03:57;14.10;92.90
49413;DHT22;35493;50.276;9.372;2022-10-22T04:06:28;14.10;93.00
49413;DHT22;35493;50.276;9.372;2022-10-22T04:08:55;14.10;92.90
49413;DHT22;35493;50.276;9.372;2022-10-22T04:11:22;14.20;92.80
49413;DHT22;35493;50.276;9.372;2022-10-22T04:13:49;14.20;92.60
49413;DHT22;35493;50.276;9.372;2022-10-22T04:16:18;14.10;92.60
49413;DHT22;35493;50.276;9.372;2022-10-22T04:18:46;14.20;92.70
49413;DHT22;35493;50.276;9.372;2022-10-22T04:21:14;14.10;92.70
49413;DHT22;35493;50.276;9.372;2022-10-22T04:23:47;14.10;92.60
49413;DHT22;35493;50.276;9.372;2022-10-22T04:26:15;14.10;92.90
49413;DHT22;35493;50.276;9.372;2022-10-22T04:28:42;14.10;93.00
49413;DHT22;35493;50.276;9.372;2022-10-22T04:31:11;14.10;92.90
49413;DHT22;35493;50.276;9.372;2022-10-22T04:33:40;14.10;92.90
49413;DHT22;35493;50.276;9.372;2022-10-22T04:36:08;14.10;92.90
49413;DHT22;35493;50.276;9.372;2022-10-22T04:38:36;14.10;92.70
49413;DHT22;35493;50.276;9.372;2022-10-22T04:41:10;14.10;92.50
49413;DHT22;35493;50.276;9.372;2022-10-22T04:43:37;14.10;92.60
49413;DHT22;35493;50.276;9.372;2022-10-22T04:46:04;14.10;92.60
49413;DHT22;35493;50.276;9.372;2022-10-22T04:48:34;14.10;92.60
49413;DHT22;35493;50.276;9.372;2022-10-22T04:51:01;14.10;92.70
49413;DHT22;35493;50.276;9.372;2022-10-22T04:53:28;14.10;92.60
49413;DHT22;35493;50.276;9.372;2022-10-22T04:56:05;14.10;92.80
49413;DHT22;35493;50.276;9.372;2022-10-22T04:58:35;14.10;92.90
49413;DHT22;35493;50.276;9.372;2022-10-22T05:01:09;14.10;93.00
49413;DHT22;35493;50.276;9.372;2022-10-22T05:03:38;14.10;93.10
49413;DHT22;35493;50.276;9.372;2022-10-22T05:06:06;14.10;93.00
49413;DHT22;35493;50.276;9.372;2022-10-22T05:08:33;14.10;92.90
49413;DHT22;35493;50.276;9.372;2022-10-22T05:11:09;14.10;92.70
49413;DHT22;35493;50.276;9.372;2022-10-22T05:13:38;14.10;92.70
49413;DHT22;35493;50.276;9.372;2022-10-22T05:16:07;14.10;92.50
49413;DHT22;35493;50.276;9.372;2022-10-22T05:18:35;14.10;92.30
49413;DHT22;35493;50.276;9.372;2022-10-22T05:21:02;14.10;92.40
49413;DHT22;35493;50.276;9.372;2022-10-22T05:23:30;14.10;92.60
49413;DHT22;35493;50.276;9.372;2022-10-22T05:26:00;14.10;92.80
49413;DHT22;35493;50.276;9.372;2022-10-22T05:28:28;14.10;92.90
49413;DHT22;35493;50.276;9.372;2022-10-22T05:30:58;14.10;92.90
49413;DHT22;35493;50.276;9.372;2022-10-22T05:33:26;14.10;92.80
49413;DHT22;35493;50.276;9.372;2022-10-22T05:35:53;14.10;93.00
49413;DHT22;35493;50.276;9.372;2022-10-22T05:38:20;14.10;93.00
49413;DHT22;35493;50.276;9.372;2022-10-22T05:40:47;14.10;93.10
49413;DHT22;35493;50.276;9.372;2022-10-22T05:43:14;14.10;92.70
49413;DHT22;35493;50.276;9.372;2022-10-22T05:45:41;14.10;92.90
49413;DHT22;35493;50.276;9.372;2022-10-22T05:48:10;14.10;93.10
49413;DHT22;35493;50.276;9.372;2022-10-22T05:50:37;14.10;93.10
49413;DHT22;35493;50.276;9.372;2022-10-22T05:53:04;14.10;93.10
49413;DHT22;35493;50.276;9.372;2022-10-22T05:55:35;14.10;93.10
49413;DHT22;35493;50.276;9.372;2022-10-22T05:58:03;14.10;93.00
49413;DHT22;35493;50.276;9.372;2022-10-22T06:00:30;14.10;92.80
49413;DHT22;35493;50.276;9.372;2022-10-22T06:02:59;14.10;92.80
49413;DHT22;35493;50.276;9.372;2022-10-22T06:05:28;14.10;92.90
49413;DHT22;35493;50.276;9.372;2022-10-22T06:07:57;14.10;92.90
49413;DHT22;35493;50.276;9.372;2022-10-22T06:10:24;14.10;92.70
49413;DHT22;35493;50.276;9.372;2022-10-22T06:12:51;14.10;92.70
49413;DHT22;35493;50.276;9.372;2022-10-22T06:15:19;14.10;93.00
49413;DHT22;35493;50.276;9.372;2022-10-22T06:17:46;14.10;93.20
49413;DHT22;35493;50.276;9.372;2022-10-22T06:20:13;14.10;93.20
49413;DHT22;35493;50.276;9.372;2022-10-22T06:22:42;14.10;93.20
49413;DHT22;35493;50.276;9.372;2022-10-22T06:25:09;14.10;93.10
49413;DHT22;35493;50.276;9.372;2022-10-22T06:27:37;14.10;93.20
49413;DHT22;35493;50.276;9.372;2022-10-22T06:30:05;14.10;93.20
49413;DHT22;35493;50.276;9.372;2022-10-22T06:32:32;14.10;93.30
49413;DHT22;35493;50.276;9.372;2022-10-22T06:34:59;14.20;93.10
49413;DHT22;35493;50.276;9.372;2022-10-22T06:37:26;14.20;93.10
49413;DHT22;35493;50.276;9.372;2022-10-22T06:39:54;14.20;93.20
49413;DHT22;35493;50.276;9.372;2022-10-22T06:42:21;14.20;93.10
49413;DHT22;35493;50.276;9.372;2022-10-22T06:44:48;14.20;92.90
49413;DHT22;35493;50.276;9.372;2022-10-22T06:47:17;14.20;93.10
49413;DHT22;35493;50.276;9.372;2022-10-22T06:49:44;14.30;93.20
49413;DHT22;35493;50.276;9.372;2022-10-22T06:52:11;14.20;93.20
49413;DHT22;35493;50.276;9.372;2022-10-22T06:54:38;14.20;93.10
49413;DHT22;35493;50.276;9.372;2022-10-22T06:57:07;14.30;93.10
49413;DHT22;35493;50.276;9.372;2022-10-22T06:59:34;14.30;93.10
49413;DHT22;35493;50.276;9.372;2022-10-22T07:02:01;14.30;93.10
49413;DHT22;35493;50.276;9.372;2022-10-22T07:04:28;14.30;93.10
49413;DHT22;35493;50.276;9.372;2022-10-22T07:06:55;14.30;93.20
49413;DHT22;35493;50.276;9.372;2022-10-22T07:09:22;14.30;93.20
49413;DHT22;35493;50.276;9.372;2022-10-22T07:11:49;14.30;93.00
49413;DHT22;35493;50.276;9.372;2022-10-22T07:14:17;14.30;93.10
49413;DHT22;35493;50.276;9.372;2022-10-22T07:16:45;14.30;93.10
49413;DHT22;35493;50.276;9.372;2022-10-22T07:19:12;14.30;93.00
49413;DHT22;35493;50.276;9.372;2022-10-22T07:21:40;14.30;93.00
49413;DHT22;35493;50.276;9.372;2022-10-22T07:24:07;14.30;93.10
49413;DHT22;35493;50.276;9.372;2022-10-22T07:26:34;14.40;93.10
49413;DHT22;35493;50.276;9.372;2022-10-22T07:29:02;14.40;93.10
49413;DHT22;35493;50.276;9.372;2022-10-22T07:31:31;14.40;93.00
49413;DHT22;35493;50.276;9.372;2022-10-22T07:33:58;14.40;93.00
49413;DHT22;35493;50.276;9.372;2022-10-22T07:36:25;14.40;92.90
49413;DHT22;35493;50.276;9.372;2022-10-22T07:38:54;14.40;93.00
49413;DHT22;35493;50.276;9.372;2022-10-22T07:41:22;14.40;93.10
49413;DHT22;35493;50.276;9.372;2022-10-22T07:43:49;14.40;93.00
49413;DHT22;35493;50.276;9.372;2022-10-22T07:46:17;14.40;93.00
49413;DHT22;35493;50.276;9.372;2022-10-22T07:48:45;14.40;93.00
49413;DHT22;35493;50.276;9.372;2022-10-22T07:51:12;14.40;93.00
49413;DHT22;35493;50.276;9.372;2022-10-22T07:53:39;14.40;92.80
49413;DHT22;35493;50.276;9.372;2022-10-22T07:56:09;14.40;91.80
49413;DHT22;35493;50.276;9.372;2022-10-22T07:58:36;14.40;92.30
49413;DHT22;35493;50.276;9.372;2022-10-22T08:01:03;14.50;92.60
49413;DHT22;35493;50.276;9.372;2022-10-22T08:03:31;14.60;92.70
49413;DHT22;35493;50.276;9.372;2022-10-22T08:06:00;14.60;92.70
49413;DHT22;35493;50.276;9.372;2022-10-22T08:08:28;14.60;92.70
49413;DHT22;35493;50.276;9.372;2022-10-22T08:10:57;14.70;92.60
49413;DHT22;35493;50.276;9.372;2022-10-22T08:13:25;14.60;92.40
49413;DHT22;35493;50.276;9.372;2022-10-22T08:15:52;14.70;92.70
49413;DHT22;35493;50.276;9.372;2022-10-22T08:18:19;14.80;92.80
49413;DHT22;35493;50.276;9.372;2022-10-22T08:20:46;14.80;92.60
49413;DHT22;35493;50.276;9.372;2022-10-22T08:23:14;14.80;92.50
49413;DHT22;35493;50.276;9.372;2022-10-22T08:25:41;14.90;92.30
49413;DHT22;35493;50.276;9.372;2022-10-22T08:28:09;14.90;92.50
49413;DHT22;35493;50.276;9.372;2022-10-22T08:30:36;14.90;92.30
49413;DHT22;35493;50.276;9.372;2022-10-22T08:33:05;15.00;92.30
49413;DHT22;35493;50.276;9.372;2022-10-22T08:35:32;15.00;92.40
49413;DHT22;35493;50.276;9.372;2022-10-22T08:37:59;15.00;92.30
49413;DHT22;35493;50.276;9.372;2022-10-22T08:40:31;15.10;92.20
49413;DHT22;35493;50.276;9.372;2022-10-22T08:43:15;15.10;92.10
49413;DHT22;35493;50.276;9.372;2022-10-22T08:45:51;15.10;92.20
49413;DHT22;35493;50.276;9.372;2022-10-22T08:48:34;15.10;91.90
49413;DHT22;35493;50.276;9.372;2022-10-22T08:51:03;15.10;92.00
49413;DHT22;35493;50.276;9.372;2022-10-22T08:53:37;15.10;92.00
49413;DHT22;35493;50.276;9.372;2022-10-22T08:56:08;15.10;91.70
49413;DHT22;35493;50.276;9.372;2022-10-22T08:58:41;15.10;91.70
49413;DHT22;35493;50.276;9.372;2022-10-22T09:01:12;15.10;91.60
49413;DHT22;35493;50.276;9.372;2022-10-22T09:03:45;15.10;91.40
49413;DHT22;35493;50.276;9.372;2022-10-22T09:06:17;15.10;91.40
49413;DHT22;35493;50.276;9.372;2022-10-22T09:08:46;15.20;91.40
49413;DHT22;35493;50.276;9.372;2022-10-22T09:11:21;15.10;91.40
49413;DHT22;35493;50.276;9.372;2022-10-22T09:13:50;15.20;91.50
49413;DHT22;35493;50.276;9.372;2022-10-22T09:16:21;15.30;91.40
49413;DHT22;35493;50.276;9.372;2022-10-22T09:18:57;15.40;90.60
49413;DHT22;35493;50.276;9.372;2022-10-22T09:21:33;15.50;90.60
49413;DHT22;35493;50.276;9.372;2022-10-22T09:24:08;15.50;90.60
49413;DHT22;35493;50.276;9.372;2022-10-22T09:26:39;15.60;90.20
49413;DHT22;35493;50.276;9.372;2022-10-22T09:29:15;15.60;89.80
49413;DHT22;35493;50.276;9.372;2022-10-22T09:31:44;15.60;89.70
49413;DHT22;35493;50.276;9.372;2022-10-22T09:34:13;15.70;89.60
49413;DHT22;35493;50.276;9.372;2022-10-22T09:36:40;15.80;89.30
49413;DHT22;35493;50.276;9.372;2022-10-22T09:39:21;15.80;89.20
49413;DHT22;35493;50.276;9.372;2022-10-22T09:41:50;15.90;89.10
49413;DHT22;35493;50.276;9.372;2022-10-22T09:44:17;15.90;88.80
49413;DHT22;35493;50.276;9.372;2022-10-22T09:46:44;16.00;88.90
49413;DHT22;35493;50.276;9.372;2022-10-22T09:49:13;16.10;88.80
49413;DHT22;35493;50.276;9.372;2022-10-22T09:51:47;16.20;88.50
49413;DHT22;35493;50.276;9.372;2022-10-22T09:54:17;16.20;88.20
49413;DHT22;35493;50.276;9.372;2022-10-22T09:56:51;16.30;87.80
49413;DHT22;35493;50.276;9.372;2022-10-22T09:59:26;16.40;87.80
49413;DHT22;35493;50.276;9.372;2022-10-22T10:02:02;16.50;87.40
49413;DHT22;35493;50.276;9.372;2022-10-22T10:04:33;16.50;87.30
49413;DHT22;35493;50.276;9.372;2022-10-22T10:07:03;16.60;87.10
49413;DHT22;35493;50.276;9.372;2022-10-22T10:09:39;16.70;87.20
49413;DHT22;35493;50.276;9.372;2022-10-22T10:12:17;16.70;86.90
49413;DHT22;35493;50.276;9.372;2022-10-22T10:14:53;16.70;86.80
49413;DHT22;35493;50.276;9.372;2022-10-22T10:17:26;16.60;86.40
49413;DHT22;35493;50.276;9.372;2022-10-22T10:20:04;16.70;86.50
49413;DHT22;35493;50.276;9.372;2022-10-22T10:22:43;16.60;86.40
49413;DHT22;35493;50.276;9.372;2022-10-22T10:25:30;16.70;86.30
49413;DHT22;35493;50.276;9.372;2022-10-22T10:28:13;16.80;86.40
49413;DHT22;35493;50.276;9.372;2022-10-22T10:30:49;16.80;85.80
49413;DHT22;35493;50.276;9.372;2022-10-22T10:33:27;16.90;85.40
49413;DHT22;35493;50.276;9.372;2022-10-22T10:36:02;16.90;85.40
49413;DHT22;35493;50.276;9.372;2022-10-22T10:38:50;17.00;85.20
49413;DHT22;35493;50.276;9.372;2022-10-22T10:41:27;17.10;85.30
49413;DHT22;35493;50.276;9.372;2022-10-22T10:44:28;17.20;85.00
49413;DHT22;35493;50.276;9.372;2022-10-22T10:47:04;17.30;84.30
49413;DHT22;35493;50.276;9.372;2022-10-22T10:49:34;17.40;84.50
49413;DHT22;35493;50.276;9.372;2022-10-22T10:52:08;17.30;84.50
49413;DHT22;35493;50.276;9.372;2022-10-22T10:54:44;17.40;84.20
49413;DHT22;35493;50.276;9.372;2022-10-22T10:57:20;17.30;83.90
49413;DHT22;35493;50.276;9.372;2022-10-22T11:00:03;17.20;84.10
49413;DHT22;35493;50.276;9.372;2022-10-22T11:03:02;17.20;84.20
49413;DHT22;35493;50.276;9.372;2022-10-22T11:05:38;17.10;84.10
49413;DHT22;35493;50.276;9.372;2022-10-22T11:08:10;17.10;84.20
49413;DHT22;35493;50.276;9.372;2022-10-22T11:10:42;17.10;84.20
49413;DHT22;35493;50.276;9.372;2022-10-22T11:13:16;17.10;84.20
49413;DHT22;35493;50.276;9.372;2022-10-22T11:15:47;17.10;84.20
49413;DHT22;35493;50.276;9.372;2022-10-22T11:18:21;17.10;84.10
49413;DHT22;35493;50.276;9.372;2022-10-22T11:20:57;17.10;84.10
49413;DHT22;35493;50.276;9.372;2022-10-22T11:23:34;17.10;83.90
49413;DHT22;35493;50.276;9.372;2022-10-22T11:26:03;17.10;83.90
49413;DHT22;35493;50.276;9.372;2022-10-22T11:28:35;17.20;83.80
49413;DHT22;35493;50.276;9.372;2022-10-22T11:31:08;17.20;83.80
49413;DHT22;35493;50.276;9.372;2022-10-22T11:33:44;17.20;83.70
49413;DHT22;35493;50.276;9.372;2022-10-22T11:36:15;17.20;83.80
49413;DHT22;35493;50.276;9.372;2022-10-22T11:38:44;17.30;83.70
49413;DHT22;35493;50.276;9.372;2022-10-22T11:41:13;17.30;83.50
49413;DHT22;35493;50.276;9.372;2022-10-22T11:43:56;17.30;83.50
49413;DHT22;35493;50.276;9.372;2022-10-22T11:46:29;17.30;83.30
49413;DHT22;35493;50.276;9.372;2022-10-22T11:49:02;17.30;83.40
49413;DHT22;35493;50.276;9.372;2022-10-22T11:51:35;17.30;83.50
49413;DHT22;35493;50.276;9.372;2022-10-22T11:54:28;17.30;83.40
49413;DHT22;35493;50.276;9.372;2022-10-22T11:56:57;17.40;83.60
49413;DHT22;35493;50.276;9.372;2022-10-22T11:59:39;17.30;83.40
49413;DHT22;35493;50.276;9.372;2022-10-22T12:05:32;17.30;83.30
49413;DHT22;35493;50.276;9.372;2022-10-22T12:08:05;17.30;83.60
49413;DHT22;35493;50.276;9.372;2022-10-22T12:10:56;17.30;83.50
49413;DHT22;35493;50.276;9.372;2022-10-22T12:13:25;17.30;83.30
49413;DHT22;35493;50.276;9.372;2022-10-22T12:15:56;17.30;83.10
49413;DHT22;35493;50.276;9.372;2022-10-22T12:18:27;17.30;83.00
49413;DHT22;35493;50.276;9.372;2022-10-22T12:20:59;17.20;83.90
49413;DHT22;35493;50.276;9.372;2022-10-22T12:23:32;17.30;83.30
49413;DHT22;35493;50.276;9.372;2022-10-22T12:25:59;17.20;83.30
49413;DHT22;35493;50.276;9.372;2022-10-22T12:28:37;17.20;83.30
49413;DHT22;35493;50.276;9.372;2022-10-22T12:31:05;17.30;83.50
49413;DHT22;35493;50.276;9.372;2022-10-22T12:33:32;17.30;83.20
49413;DHT22;35493;50.276;9.372;2022-10-22T12:36:03;17.40;83.50
49413;DHT22;35493;50.276;9.372;2022-10-22T12:38:31;17.40;83.60
49413;DHT22;35493;50.276;9.372;2022-10-22T12:40:58;17.40;83.30
49413;DHT22;35493;50.276;9.372;2022-10-22T12:43:27;17.60;83.00
49413;DHT22;35493;50.276;9.372;2022-10-22T12:45:55;17.60;82.70
49413;DHT22;35493;50.276;9.372;2022-10-22T12:48:24;17.60;82.20
49413;DHT22;35493;50.276;9.372;2022-10-22T12:50:54;17.70;82.20
49413;DHT22;35493;50.276;9.372;2022-10-22T12:53:24;17.70;81.50
49413;DHT22;35493;50.276;9.372;2022-10-22T12:55:54;17.70;81.50
49413;DHT22;35493;50.276;9.372;2022-10-22T12:58:25;17.70;81.70
49413;DHT22;35493;50.276;9.372;2022-10-22T13:00:54;17.70;81.70
49413;DHT22;35493;50.276;9.372;2022-10-22T13:03:28;17.70;81.50
49413;DHT22;35493;50.276;9.372;2022-10-22T13:05:55;17.80;81.60
49413;DHT22;35493;50.276;9.372;2022-10-22T13:08:26;17.70;81.70
49413;DHT22;35493;50.276;9.372;2022-10-22T13:10:54;17.80;81.60
49413;DHT22;35493;50.276;9.372;2022-10-22T13:13:30;17.80;81.30
49413;DHT22;35493;50.276;9.372;2022-10-22T13:16:12;17.70;81.20
49413;DHT22;35493;50.276;9.372;2022-10-22T13:18:40;17.80;81.10
49413;DHT22;35493;50.276;9.372;2022-10-22T13:21:21;17.80;81.20
49413;DHT22;35493;50.276;9.372;2022-10-22T13:23:57;17.70;81.40
49413;DHT22;35493;50.276;9.372;2022-10-22T13:26:30;17.80;81.70
49413;DHT22;35493;50.276;9.372;2022-10-22T13:28:57;17.80;81.60
49413;DHT22;35493;50.276;9.372;2022-10-22T13:31:27;17.80;81.50
49413;DHT22;35493;50.276;9.372;2022-10-22T13:33:59;17.80;81.60
49413;DHT22;35493;50.276;9.372;2022-10-22T13:36:27;17.90;81.20
49413;DHT22;35493;50.276;9.372;2022-10-22T13:38:56;17.90;81.00
49413;DHT22;35493;50.276;9.372;2022-10-22T13:41:27;17.90;81.20
49413;DHT22;35493;50.276;9.372;2022-10-22T13:43:55;17.90;81.30
49413;DHT22;35493;50.276;9.372;2022-10-22T13:46:24;17.90;81.10
49413;DHT22;35493;50.276;9.372;2022-10-22T13:48:54;17.90;80.60
49413;DHT22;35493;50.276;9.372;2022-10-22T13:51:31;17.90;80.20
49413;DHT22;35493;50.276;9.372;2022-10-22T13:54:02;17.80;80.70
49413;DHT22;35493;50.276;9.372;2022-10-22T13:56:30;17.70;80.30
49413;DHT22;35493;50.276;9.372;2022-10-22T13:58:57;17.70;80.90
49413;DHT22;35493;50.276;9.372;2022-10-22T14:01:26;17.70;80.80
49413;DHT22;35493;50.276;9.372;2022-10-22T14:03:55;17.70;80.70
49413;DHT22;35493;50.276;9.372;2022-10-22T14:06:24;17.70;80.90
49413;DHT22;35493;50.276;9.372;2022-10-22T14:08:56;17.70;81.00
49413;DHT22;35493;50.276;9.372;2022-10-22T14:11:25;17.70;81.20
49413;DHT22;35493;50.276;9.372;2022-10-22T14:13:53;17.60;81.00
49413;DHT22;35493;50.276;9.372;2022-10-22T14:16:22;17.70;81.00
49413;DHT22;35493;50.276;9.372;2022-10-22T14:18:50;17.70;81.10
49413;DHT22;35493;50.276;9.372;2022-10-22T14:21:18;17.70;81.00
49413;DHT22;35493;50.276;9.372;2022-10-22T14:23:46;17.70;81.10
49413;DHT22;35493;50.276;9.372;2022-10-22T14:26:20;17.70;81.20
49413;DHT22;35493;50.276;9.372;2022-10-22T14:28:49;17.70;81.30
49413;DHT22;35493;50.276;9.372;2022-10-22T14:31:16;17.60;81.40
49413;DHT22;35493;50.276;9.372;2022-10-22T14:33:43;17.60;81.60
49413;DHT22;35493;50.276;9.372;2022-10-22T14:36:12;17.60;81.80
49413;DHT22;35493;50.276;9.372;2022-10-22T14:38:39;17.60;81.80
49413;DHT22;35493;50.276;9.372;2022-10-22T14:41:16;17.60;81.70
49413;DHT22;35493;50.276;9.372;2022-10-22T14:43:43;17.60;81.70
49413;DHT22;35493;50.276;9.372;2022-10-22T14:46:12;17.60;81.70
49413;DHT22;35493;50.276;9.372;2022-10-22T14:48:40;17.60;81.90
49413;DHT22;35493;50.276;9.372;2022-10-22T14:51:12;17.60;81.90
49413;DHT22;35493;50.276;9.372;2022-10-22T14:53:39;17.60;81.90
49413;DHT22;35493;50.276;9.372;2022-10-22T14:56:08;17.60;81.90
49413;DHT22;35493;50.276;9.372;2022-10-22T14:58:36;17.60;81.90
49413;DHT22;35493;50.276;9.372;2022-10-22T15:01:03;17.60;81.90
49413;DHT22;35493;50.276;9.372;2022-10-22T15:03:32;17.60;81.90
49413;DHT22;35493;50.276;9.372;2022-10-22T15:05:59;17.60;81.90
49413;DHT22;35493;50.276;9.372;2022-10-22T15:08:28;17.60;82.00
49413;DHT22;35493;50.276;9.372;2022-10-22T15:10:59;17.60;82.10
49413;DHT22;35493;50.276;9.372;2022-10-22T15:13:28;17.50;82.30
49413;DHT22;35493;50.276;9.372;2022-10-22T15:15:56;17.50;82.30
49413;DHT22;35493;50.276;9.372;2022-10-22T15:18:23;17.50;82.40
49413;DHT22;35493;50.276;9.372;2022-10-22T15:20:56;17.40;82.50
49413;DHT22;35493;50.276;9.372;2022-10-22T15:23:24;17.40;82.60
49413;DHT22;35493;50.276;9.372;2022-10-22T15:25:51;17.40;82.80
49413;DHT22;35493;50.276;9.372;2022-10-22T15:28:18;17.40;82.90
49413;DHT22;35493;50.276;9.372;2022-10-22T15:30:51;17.40;83.00
49413;DHT22;35493;50.276;9.372;2022-10-22T15:33:18;17.40;83.10
49413;DHT22;35493;50.276;9.372;2022-10-22T15:35:45;17.30;83.30
49413;DHT22;35493;50.276;9.372;2022-10-22T15:38:14;17.30;83.60
49413;DHT22;35493;50.276;9.372;2022-10-22T15:40:41;17.20;83.90
49413;DHT22;35493;50.276;9.372;2022-10-22T15:43:10;17.20;84.00
49413;DHT22;35493;50.276;9.372;2022-10-22T15:45:38;17.20;84.10
49413;DHT22;35493;50.276;9.372;2022-10-22T15:48:05;17.10;84.10
49413;DHT22;35493;50.276;9.372;2022-10-22T15:50:36;17.10;84.20
49413;DHT22;35493;50.276;9.372;2022-10-22T15:53:05;17.10;84.50
49413;DHT22;35493;50.276;9.372;2022-10-22T15:55:33;17.10;84.60
49413;DHT22;35493;50.276;9.372;2022-10-22T15:58:00;17.10;84.80
49413;DHT22;35493;50.276;9.372;2022-10-22T16:00:27;17.10;85.10
49413;DHT22;35493;50.276;9.372;2022-10-22T16:02:55;17.00;85.30